Time;durP1;ratioP1;P1;durP2;ratioP2;P2;SDS_P1;SDS_P2;PMS_P1;PMS_P2;Temp;Humidity;BMP_temperature;BMP_pressure;BME280_temperature;BME280_humidity;BME280_pressure;Samples;Min_cycle;Max_cycle;Signal;HPM_P1;HPM_P2
2020/12/08 02:59:18;;;;;;;23.05;14.65;;;;;;;4.91;73.35;98564.31;5041179;23;20049;-90
2020/12/08 03:01:44;;;;;;;22.27;14.82;;;;;;;4.87;73.39;98557.56;4993771;28;20057;-90
2020/12/08 03:04:12;;;;;;;21.50;14.23;;;;;;;4.82;73.34;98560.41;4995200;28;20124;-91
2020/12/08 03:06:42;;;;;;;22.65;14.43;;;;;;;4.76;73.17;98556.38;4993339;28;20504;-90
2020/12/08 03:09:08;;;;;;;25.55;15.32;;;;;;;4.73;73.43;98556.53;4990435;28;20101;-90
2020/12/08 03:11:34;;;;;;;23.98;15.27;;;;;;;4.71;73.40;98558.38;4975161;28;20061;-91
2020/12/08 03:14:01;;;;;;;26.40;15.75;;;;;;;4.68;73.38;98567.19;4974332;28;20109;-90
2020/12/08 03:16:27;;;;;;;24.55;15.73;;;;;;;4.65;73.63;98559.56;4974260;28;20109;-91
2020/12/08 03:18:56;;;;;;;24.38;15.07;;;;;;;4.62;73.56;98562.31;4974835;28;20138;-91
2020/12/08 03:21:23;;;;;;;23.40;15.70;;;;;;;4.61;73.59;98562.38;4973374;28;20074;-91
2020/12/08 03:23:50;;;;;;;24.70;15.75;;;;;;;4.59;73.67;98569.44;4974499;28;20130;-90
2020/12/08 03:26:22;;;;;;;24.25;14.85;;;;;;;4.54;73.36;98567.91;4974810;28;20494;-90
2020/12/08 03:28:50;;;;;;;23.85;15.68;;;;;;;4.54;74.01;98565.31;4974441;28;20117;-91
2020/12/08 03:31:17;;;;;;;24.55;15.55;;;;;;;4.53;74.09;98561.00;4974853;28;20105;-91
2020/12/08 03:33:43;;;;;;;25.88;15.35;;;;;;;4.53;74.33;98555.78;4974841;28;20070;-91
2020/12/08 03:36:20;;;;;;;28.80;15.80;;;;;;;4.52;73.88;98563.72;4973908;28;20139;-90
2020/12/08 03:38:48;;;;;;;27.83;15.90;;;;;;;4.54;74.40;98567.06;4975241;28;20058;-91
2020/12/08 03:41:22;;;;;;;24.33;15.85;;;;;;;4.53;74.24;98560.19;4974977;28;20065;-90
2020/12/08 03:43:50;;;;;;;25.25;16.25;;;;;;;4.57;74.75;98557.31;4975196;28;20055;-90
2020/12/08 03:46:23;;;;;;;27.55;16.80;;;;;;;4.58;74.82;98555.56;4975992;28;20540;-90
2020/12/08 03:48:53;;;;;;;27.38;17.55;;;;;;;4.61;75.22;98552.81;4977984;28;20205;-90
2020/12/08 03:51:23;;;;;;;26.20;16.73;;;;;;;4.65;75.23;98550.88;4978385;28;20062;-91
2020/12/08 03:53:52;;;;;;;24.55;16.10;;;;;;;4.71;75.50;98560.16;4977742;28;20145;-91
2020/12/08 03:56:19;;;;;;;24.40;16.05;;;;;;;4.74;75.37;98553.00;4977405;28;20518;-91
2020/12/08 03:58:46;;;;;;;27.65;16.20;;;;;;;4.77;75.21;98560.66;4977433;28;20055;-90
2020/12/08 04:01:21;;;;;;;27.90;16.95;;;;;;;4.78;74.68;98549.31;4978033;28;20417;-91
2020/12/08 04:03:54;;;;;;;25.83;17.65;;;;;;;4.85;75.18;98551.59;4977887;28;20090;-90
2020/12/08 04:06:23;;;;;;;24.58;15.80;;;;;;;4.87;75.25;98553.22;4979879;28;20050;-91
2020/12/08 04:08:50;;;;;;;26.40;16.25;;;;;;;4.93;75.44;98549.41;4978735;28;20058;-90
2020/12/08 04:11:16;;;;;;;24.70;16.40;;;;;;;4.95;75.65;98539.75;4979188;28;20061;-91
2020/12/08 04:13:48;;;;;;;24.67;16.55;;;;;;;4.99;75.66;98546.50;4980474;28;20051;-90
2020/12/08 04:16:15;;;;;;;27.45;16.65;;;;;;;5.04;75.72;98543.63;4981637;28;20059;-90
2020/12/08 04:18:41;;;;;;;26.73;17.20;;;;;;;5.08;75.62;98539.91;4980667;28;20137;-90
2020/12/08 04:21:07;;;;;;;23.67;15.77;;;;;;;5.13;75.62;98530.09;4980910;28;20061;-90
2020/12/08 04:23:34;;;;;;;25.60;15.63;;;;;;;5.17;75.58;98530.78;4982174;28;20055;-90
2020/12/08 04:26:00;;;;;;;22.98;15.57;;;;;;;5.21;75.52;98529.69;4981420;28;20081;-90
2020/12/08 04:28:27;;;;;;;26.13;17.00;;;;;;;5.25;75.70;98536.41;4980552;28;20054;-90
2020/12/08 04:30:53;;;;;;;26.13;16.23;;;;;;;5.28;75.66;98536.25;4980437;28;20137;-90
2020/12/08 04:33:20;;;;;;;25.40;15.88;;;;;;;5.32;75.60;98536.91;4980190;28;20058;-90
2020/12/08 04:35:46;;;;;;;25.75;16.20;;;;;;;5.34;75.50;98546.34;4982466;28;20102;-91
2020/12/08 04:38:13;;;;;;;23.55;15.82;;;;;;;5.39;75.66;98547.84;4982532;28;20075;-91
2020/12/08 04:40:39;;;;;;;27.58;16.88;;;;;;;5.42;75.82;98551.13;4983000;28;20133;-90
2020/12/08 04:43:06;;;;;;;24.13;15.77;;;;;;;5.46;75.55;98546.59;4982447;28;20511;-90
2020/12/08 04:45:32;;;;;;;23.92;15.52;;;;;;;5.50;75.62;98552.47;4981226;28;20139;-91
2020/12/08 04:48:07;;;;;;;26.00;16.35;;;;;;;5.51;74.80;98557.63;4980097;28;20464;-90
2020/12/08 04:50:34;;;;;;;24.92;16.40;;;;;;;5.55;75.17;98553.06;4982607;28;20081;-90
2020/12/08 04:53:02;;;;;;;26.00;16.65;;;;;;;5.59;75.46;98559.78;4980871;28;20058;-90
2020/12/08 04:55:29;;;;;;;26.00;16.52;;;;;;;5.60;75.18;98559.72;4980269;28;20110;-90
2020/12/08 04:57:55;;;;;;;22.73;15.30;;;;;;;5.61;74.82;98553.56;4979171;28;20050;-90
2020/12/08 05:00:22;;;;;;;25.95;16.60;;;;;;;5.64;74.88;98560.38;4978770;28;20058;-90
2020/12/08 05:02:53;;;;;;;27.92;16.45;;;;;;;5.64;74.55;98567.38;4986012;28;20054;-90
2020/12/08 05:05:22;;;;;;;25.88;16.40;;;;;;;5.61;74.49;98566.59;4980132;28;20059;-90
2020/12/08 05:07:49;;;;;;;28.92;16.50;;;;;;;5.61;74.72;98563.19;4994312;28;20070;-91
2020/12/08 05:10:26;;;;;;;28.38;16.85;;;;;;;5.59;73.73;98565.00;4992456;28;20070;-91
2020/12/08 05:12:54;;;;;;;25.77;15.95;;;;;;;5.61;74.78;98558.78;4996103;28;20142;-91
2020/12/08 05:15:21;;;;;;;26.98;17.25;;;;;;;5.60;74.24;98564.94;4994838;28;20074;-91
2020/12/08 05:17:47;;;;;;;25.00;16.42;;;;;;;5.59;74.57;98559.78;4992817;28;20125;-91
2020/12/08 05:20:16;;;;;;;25.85;16.77;;;;;;;5.59;74.35;98559.78;4994981;28;20127;-91
2020/12/08 05:22:54;;;;;;;25.30;16.52;;;;;;;5.55;73.65;98561.75;4991753;28;20079;-91
2020/12/08 05:25:22;;;;;;;25.90;16.05;;;;;;;5.57;74.85;98559.88;4990980;28;20050;-91
2020/12/08 05:27:49;;;;;;;26.90;16.98;;;;;;;5.55;74.81;98564.34;4990357;28;20086;-90
2020/12/08 05:30:16;;;;;;;28.63;17.50;;;;;;;5.55;74.70;98556.53;4992997;28;20118;-89
2020/12/08 05:32:43;;;;;;;25.20;16.85;;;;;;;5.54;74.57;98557.47;4991314;28;20459;-91
2020/12/08 05:35:15;;;;;;;29.00;16.70;;;;;;;5.53;74.50;98560.16;4994640;28;20081;-91
2020/12/08 05:37:49;;;;;;;28.33;17.42;;;;;;;5.51;74.85;98565.44;4993921;28;20051;-91
2020/12/08 05:40:18;;;;;;;27.40;17.27;;;;;;;5.52;74.82;98564.50;4993510;28;20513;-91
2020/12/08 05:42:50;;;;;;;27.17;16.98;;;;;;;5.50;74.45;98566.38;4989892;28;20055;-91
2020/12/08 05:45:20;;;;;;;28.02;16.77;;;;;;;5.52;74.77;98572.34;4975047;28;20055;-90
2020/12/08 05:47:50;;;;;;;27.65;16.77;;;;;;;5.52;74.73;98571.50;4975020;28;20055;-90
2020/12/08 05:50:18;;;;;;;27.08;16.77;;;;;;;5.49;74.83;98575.13;4976027;28;20050;-91
2020/12/08 05:52:50;;;;;;;26.17;16.67;;;;;;;5.48;74.34;98573.44;4975623;28;20062;-89
2020/12/08 05:55:19;;;;;;;27.60;16.85;;;;;;;5.50;74.66;98575.97;4974847;28;20050;-90
2020/12/08 05:57:46;;;;;;;26.77;16.88;;;;;;;5.50;74.78;98575.97;4975812;28;20046;-90
2020/12/08 06:00:28;;;;;;;27.48;18.00;;;;;;;5.47;73.93;98574.38;4974244;28;20051;-90
2020/12/08 06:03:06;;;;;;;26.40;15.82;;;;;;;5.48;74.74;98574.28;4975828;28;20054;-90
2020/12/08 06:05:34;;;;;;;27.77;17.52;;;;;;;5.49;74.83;98575.13;4974921;28;20429;-90
2020/12/08 06:08:21;;;;;;;26.15;16.83;;;;;;;5.45;74.03;98581.44;4974356;28;20054;-90
2020/12/08 06:10:54;;;;;;;26.48;16.67;;;;;;;5.47;74.90;98571.75;4974814;28;20082;-91
2020/12/08 06:13:24;;;;;;;25.40;16.52;;;;;;;5.45;74.38;98582.28;4974069;28;20054;-90
2020/12/08 06:15:50;;;;;;;27.85;16.67;;;;;;;5.48;74.96;98586.50;4974527;28;20055;-90
2020/12/08 06:18:27;;;;;;;24.48;16.10;;;;;;;5.44;74.08;98584.97;4974088;28;20502;-90
2020/12/08 06:20:54;;;;;;;31.38;16.42;;;;;;;5.48;75.22;98589.09;4974231;28;20050;-90
2020/12/08 06:23:20;;;;;;;25.90;16.13;;;;;;;5.50;74.92;98589.03;4975057;28;20078;-91
2020/12/08 06:25:46;;;;;;;25.65;16.15;;;;;;;5.51;74.93;98585.47;4974152;28;20059;-90
2020/12/08 06:28:18;;;;;;;25.25;16.13;;;;;;;5.52;74.79;98589.75;4974143;28;20053;-90
2020/12/08 06:30:44;;;;;;;27.10;16.45;;;;;;;5.55;75.11;98585.25;4973959;28;20051;-90
2020/12/08 06:33:10;;;;;;;27.30;17.23;;;;;;;5.55;74.79;98595.69;4973672;28;20050;-90
2020/12/08 06:35:36;;;;;;;26.27;16.92;;;;;;;5.58;75.06;98597.28;4974128;28;20074;-90
2020/12/08 06:38:14;;;;;;;24.02;15.85;;;;;;;5.59;74.99;98597.19;4973840;28;20058;-90
2020/12/08 06:40:50;;;;;;;27.38;16.98;;;;;;;5.57;74.32;98598.22;4974052;28;20447;-90
2020/12/08 06:43:16;;;;;;;27.45;16.50;;;;;;;5.60;74.92;98601.47;4973588;28;20051;-90
2020/12/08 06:45:42;;;;;;;26.50;16.55;;;;;;;5.60;74.98;98608.47;4974968;28;20501;-90
2020/12/08 06:48:16;;;;;;;30.70;17.15;;;;;;;5.57;74.75;98608.66;4974035;28;20051;-92
2020/12/08 06:50:42;;;;;;;27.75;16.83;;;;;;;5.59;74.95;98605.03;4973963;28;20420;-90
2020/12/08 06:53:08;;;;;;;28.35;17.52;;;;;;;5.59;74.90;98602.41;4973569;28;20061;-91
2020/12/08 06:55:48;;;;;;;27.60;16.35;;;;;;;5.56;74.52;98602.56;4973811;28;20584;-90
2020/12/08 06:58:15;;;;;;;25.50;16.35;;;;;;;5.60;75.04;98605.84;4974414;28;20051;-90
2020/12/08 07:00:44;;;;;;;30.83;18.25;;;;;;;5.61;74.99;98610.16;4973321;28;20413;-90
2020/12/08 07:03:12;;;;;;;27.00;17.73;;;;;;;5.61;74.98;98611.00;4973608;28;20433;-91
2020/12/08 07:05:39;;;;;;;28.95;17.95;;;;;;;5.60;74.96;98613.69;4973795;28;20097;-91
2020/12/08 07:08:07;;;;;;;26.25;16.85;;;;;;;5.59;75.01;98622.44;4974994;28;20432;-90
2020/12/08 07:10:41;;;;;;;30.35;17.75;;;;;;;5.56;74.20;98617.38;4973732;28;20411;-90
2020/12/08 07:13:16;;;;;;;28.27;17.42;;;;;;;5.56;74.26;98610.41;4973624;28;20051;-91
2020/12/08 07:15:43;;;;;;;25.80;16.90;;;;;;;5.56;74.78;98613.00;4973725;28;20051;-91
2020/12/08 07:18:12;;;;;;;27.60;18.00;;;;;;;5.55;74.92;98618.31;4973585;28;20386;-90
2020/12/08 07:20:40;;;;;;;29.48;18.55;;;;;;;5.55;75.15;98615.72;4973902;28;20047;-90
2020/12/08 07:23:08;;;;;;;27.42;16.83;;;;;;;5.54;75.19;98620.09;4977510;28;20520;-90
2020/12/08 07:25:34;;;;;;;25.85;16.50;;;;;;;5.53;74.98;98623.63;4977629;28;20046;-90
2020/12/08 07:28:02;;;;;;;29.80;17.58;;;;;;;5.54;75.01;98621.88;4977493;28;20073;-90
2020/12/08 07:30:30;;;;;;;28.88;18.63;;;;;;;5.53;75.07;98623.63;4977408;28;20130;-90
2020/12/08 07:33:11;;;;;;;29.08;17.42;;;;;;;5.50;74.65;98631.63;4977354;28;20084;-91
2020/12/08 07:35:42;;;;;;;30.05;16.95;;;;;;;5.53;75.25;98623.63;4977652;28;20069;-91
2020/12/08 07:38:08;;;;;;;27.48;17.95;;;;;;;5.54;75.06;98632.31;4977586;28;20047;-90
2020/12/08 07:40:36;;;;;;;27.67;16.75;;;;;;;5.54;75.58;98629.69;4977026;28;20050;-91
2020/12/08 07:43:04;;;;;;;30.50;17.52;;;;;;;5.55;75.52;98631.38;4977239;28;20051;-90
2020/12/08 07:45:32;;;;;;;28.23;17.23;;;;;;;5.57;75.26;98640.78;4977058;28;20086;-90
2020/12/08 07:48:00;;;;;;;27.42;16.98;;;;;;;5.59;75.54;98641.56;4977151;28;20053;-91
2020/12/08 07:50:29;;;;;;;28.65;16.75;;;;;;;5.60;75.35;98653.69;4976781;28;20061;-90
2020/12/08 07:53:07;;;;;;;26.23;17.30;;;;;;;5.60;74.79;98645.00;4977075;28;20145;-91
2020/12/08 07:55:39;;;;;;;26.88;17.00;;;;;;;5.65;74.97;98642.16;4976679;28;20143;-91
2020/12/08 07:58:06;;;;;;;25.83;16.90;;;;;;;5.67;75.44;98643.75;4976370;28;20669;-90
2020/12/08 08:00:32;;;;;;;29.02;17.98;;;;;;;5.70;75.71;98640.13;4976913;28;20561;-90
2020/12/08 08:02:59;;;;;;;28.30;17.38;;;;;;;5.73;75.64;98650.41;4976968;28;20497;-90
2020/12/08 08:05:26;;;;;;;26.38;17.58;;;;;;;5.76;75.28;98658.09;4976722;28;20051;-91
2020/12/08 08:07:52;;;;;;;29.17;17.48;;;;;;;5.76;75.03;98652.88;4977811;28;20064;-90
2020/12/08 08:10:19;;;;;;;26.83;17.52;;;;;;;5.76;75.25;98650.25;4976819;28;20107;-91
2020/12/08 08:12:45;;;;;;;29.30;17.85;;;;;;;5.75;74.77;98653.78;4977804;28;20051;-91
2020/12/08 08:15:11;;;;;;;28.73;17.35;;;;;;;5.74;75.19;98658.16;4976328;28;20062;-90
2020/12/08 08:17:38;;;;;;;26.95;16.73;;;;;;;5.72;75.13;98648.75;4976705;28;20051;-90
2020/12/08 08:20:06;;;;;;;28.23;17.83;;;;;;;5.71;74.95;98657.47;4976926;28;20055;-90
2020/12/08 08:22:33;;;;;;;24.17;15.82;;;;;;;5.70;75.06;98655.78;4976537;28;20078;-90
2020/12/08 08:24:59;;;;;;;27.20;17.70;;;;;;;5.68;75.13;98655.06;4976478;28;20071;-90
2020/12/08 08:27:25;;;;;;;27.23;17.58;;;;;;;5.68;74.93;98657.66;4976962;28;20077;-90
2020/12/08 08:29:51;;;;;;;29.00;17.73;;;;;;;5.67;75.18;98661.19;4977499;28;20071;-90
2020/12/08 08:32:18;;;;;;;31.83;17.83;;;;;;;5.66;75.28;98660.34;4976541;28;20055;-91
2020/12/08 08:34:44;;;;;;;29.58;18.67;;;;;;;5.67;75.18;98651.59;4975640;28;20054;-91
2020/12/08 08:37:10;;;;;;;27.92;17.15;;;;;;;5.68;75.59;98657.66;4976281;28;20061;-91
2020/12/08 08:39:36;;;;;;;25.88;16.10;;;;;;;5.68;75.63;98652.44;4976801;28;20075;-90
2020/12/08 08:42:03;;;;;;;26.48;17.38;;;;;;;5.70;75.54;98661.03;4976777;28;20054;-91
2020/12/08 08:44:29;;;;;;;28.25;17.27;;;;;;;5.70;75.81;98654.03;4976520;28;20061;-91
2020/12/08 08:46:55;;;;;;;30.08;18.27;;;;;;;5.74;75.67;98657.31;4975947;28;20129;-91
2020/12/08 08:49:22;;;;;;;29.02;18.25;;;;;;;5.77;75.76;98661.53;4975889;28;20398;-91
2020/12/08 08:51:48;;;;;;;28.20;17.02;;;;;;;5.82;75.70;98662.97;4976913;28;20058;-91
2020/12/08 08:54:17;;;;;;;25.63;16.73;;;;;;;5.84;75.68;98661.09;4975851;28;20133;-90
2020/12/08 08:56:44;;;;;;;25.83;16.52;;;;;;;5.89;75.52;98665.22;4976078;28;20054;-90
2020/12/08 09:01:58;;;;;;;25.15;15.18;;;;;;;5.95;75.78;98670.13;4899736;29;20076;-85
2020/12/08 09:04:24;;;;;;;25.95;16.67;;;;;;;5.97;75.50;98668.25;4884104;29;20476;-87
2020/12/08 09:06:50;;;;;;;24.52;16.33;;;;;;;5.98;75.53;98665.56;4903333;29;20056;-86
2020/12/08 09:09:17;;;;;;;26.00;16.83;;;;;;;6.00;75.72;98671.56;4900003;29;20112;-86
2020/12/08 09:11:43;;;;;;;24.75;16.15;;;;;;;6.02;75.55;98674.06;4919160;29;20064;-85
2020/12/08 09:14:14;;;;;;;26.88;16.15;;;;;;;6.03;75.63;98669.69;4918353;29;20056;-88
2020/12/08 09:16:40;;;;;;;25.67;16.90;;;;;;;6.06;75.72;98673.00;4917688;29;20067;-85
2020/12/08 09:19:06;;;;;;;25.08;16.30;;;;;;;6.08;75.81;98670.28;4917712;29;20127;-86
2020/12/08 09:21:32;;;;;;;27.08;16.60;;;;;;;6.09;75.65;98674.63;4919356;29;20054;-87
2020/12/08 09:23:59;;;;;;;25.02;16.25;;;;;;;6.12;75.45;98677.03;4919843;29;20059;-86
2020/12/08 09:26:25;;;;;;;26.52;16.63;;;;;;;6.13;75.57;98684.78;4920755;29;20059;-86
2020/12/08 09:28:51;;;;;;;26.75;17.73;;;;;;;6.14;75.59;98688.25;4919707;29;20071;-86
2020/12/08 09:31:17;;;;;;;25.65;16.42;;;;;;;6.16;75.64;98682.97;4918000;29;20058;-85
2020/12/08 09:33:46;;;;;;;25.65;17.20;;;;;;;6.15;75.46;98681.25;4918514;29;20062;-87
2020/12/08 09:36:13;;;;;;;26.10;16.60;;;;;;;6.16;75.40;98688.19;4919445;29;20060;-85
2020/12/08 09:38:39;;;;;;;23.92;15.98;;;;;;;6.17;75.74;98682.03;4917664;29;20076;-86
2020/12/08 09:41:05;;;;;;;25.42;17.33;;;;;;;6.18;75.69;98675.84;4918506;29;20059;-88
2020/12/08 09:43:31;;;;;;;25.98;16.80;;;;;;;6.19;75.65;98677.53;4920744;29;20156;-88
2020/12/08 09:46:00;;;;;;;22.77;16.55;;;;;;;6.21;75.79;98675.69;4918082;29;20499;-85
2020/12/08 09:48:27;;;;;;;29.15;16.65;;;;;;;6.23;75.74;98684.28;4917074;29;20052;-88
2020/12/08 09:50:53;;;;;;;26.30;16.58;;;;;;;6.24;75.44;98681.56;4917602;29;20417;-86
2020/12/08 09:53:19;;;;;;;26.20;16.73;;;;;;;6.27;75.69;98685.78;4917728;29;20059;-86
2020/12/08 09:55:47;;;;;;;25.60;16.95;;;;;;;6.28;75.59;98681.41;4919241;29;20151;-87
2020/12/08 09:58:14;;;;;;;27.48;17.83;;;;;;;6.30;75.33;98684.75;4919564;29;20058;-87
2020/12/08 10:00:43;;;;;;;26.15;16.23;;;;;;;6.32;75.49;98680.31;4919469;29;20059;-85
2020/12/08 10:03:10;;;;;;;25.83;16.77;;;;;;;6.33;75.78;98690.69;4917955;29;20499;-85
2020/12/08 10:05:36;;;;;;;27.33;17.52;;;;;;;6.34;75.67;98692.38;4917025;29;20055;-85
2020/12/08 10:08:02;;;;;;;28.30;17.60;;;;;;;6.37;75.45;98691.34;4917314;29;20048;-87
2020/12/08 10:10:28;;;;;;;25.23;16.65;;;;;;;6.36;75.22;98689.66;4917737;29;20059;-86
2020/12/08 10:12:55;;;;;;;24.20;16.13;;;;;;;6.37;75.59;98692.19;4918935;29;20056;-88
2020/12/08 10:15:21;;;;;;;25.05;16.10;;;;;;;6.39;75.42;98686.84;4917700;29;20115;-88
2020/12/08 10:17:47;;;;;;;24.92;16.45;;;;;;;6.41;75.80;98702.44;4916881;29;20055;-88
2020/12/08 10:20:14;;;;;;;25.75;16.33;;;;;;;6.43;75.26;98688.38;4919610;29;20521;-88
2020/12/08 10:22:40;;;;;;;26.30;16.23;;;;;;;6.44;75.23;98697.06;4916373;29;20048;-86
2020/12/08 10:25:06;;;;;;;24.88;15.98;;;;;;;6.46;75.42;98695.19;4918756;29;20063;-86
2020/12/08 10:27:32;;;;;;;23.73;15.70;;;;;;;6.48;75.17;98698.56;4918629;29;20054;-87
2020/12/08 10:30:04;;;;;;;25.52;16.17;;;;;;;6.48;75.09;98701.19;4917756;29;20487;-86
2020/12/08 10:32:31;;;;;;;22.17;15.52;;;;;;;6.50;75.36;98694.94;4916620;29;20052;-86
2020/12/08 10:34:58;;;;;;;24.25;16.23;;;;;;;6.54;75.60;98710.47;4917420;29;20052;-87
2020/12/08 10:37:24;;;;;;;24.70;16.02;;;;;;;6.56;75.42;98698.97;4918423;29;20150;-88
2020/12/08 10:39:50;;;;;;;24.38;15.77;;;;;;;6.57;75.44;98692.81;4917210;29;20107;-88
2020/12/08 10:42:16;;;;;;;23.20;15.18;;;;;;;6.60;75.56;98691.78;4916261;29;20059;-86
2020/12/08 10:44:42;;;;;;;29.08;16.08;;;;;;;6.63;75.25;98700.31;4918436;29;20056;-86
2020/12/08 10:47:08;;;;;;;24.45;15.73;;;;;;;6.65;75.53;98697.59;4916820;29;20052;-88
2020/12/08 10:49:34;;;;;;;26.73;16.33;;;;;;;6.68;75.07;98700.03;4917478;29;20059;-88
2020/12/08 10:52:01;;;;;;;23.65;15.73;;;;;;;6.70;75.12;98697.34;4916168;29;20080;-86
2020/12/08 10:54:30;;;;;;;24.58;15.50;;;;;;;6.70;74.98;98687.72;4919238;29;20403;-87
2020/12/08 10:56:58;;;;;;;26.55;16.70;;;;;;;6.73;75.31;98698.00;4917776;29;20059;-87
2020/12/08 10:59:24;;;;;;;25.67;16.23;;;;;;;6.77;75.26;98696.06;4918188;29;20126;-85
2020/12/08 11:02:10;;;;;;;25.90;16.33;;;;;;;6.80;75.31;98693.25;4917625;29;20511;-86
2020/12/08 11:04:36;;;;;;;23.20;15.60;;;;;;;6.82;75.46;98695.75;4917258;29;20138;-85
2020/12/08 11:07:02;;;;;;;24.45;15.52;;;;;;;6.83;75.33;98686.97;4916642;29;20063;-86
2020/12/08 11:09:31;;;;;;;24.25;16.35;;;;;;;6.83;75.13;98686.97;4917516;29;20048;-85
2020/12/08 11:11:58;;;;;;;24.08;16.55;;;;;;;6.84;75.31;98692.13;4917206;29;20135;-86
2020/12/08 11:14:33;;;;;;;24.73;16.20;;;;;;;6.88;75.33;98688.41;4917430;29;20078;-86
2020/12/08 11:16:59;;;;;;;23.73;16.45;;;;;;;6.88;75.30;98685.78;4918598;29;20131;-88
2020/12/08 11:19:34;;;;;;;25.90;15.38;;;;;;;6.90;75.32;98683.94;4917750;29;20135;-85
2020/12/08 11:22:05;;;;;;;25.08;16.73;;;;;;;6.90;74.54;98678.69;4917395;29;20056;-86
2020/12/08 11:24:43;;;;;;;23.45;16.13;;;;;;;6.91;74.15;98680.38;4917042;29;20052;-89
2020/12/08 11:27:23;;;;;;;22.23;15.85;;;;;;;6.92;74.46;98676.00;4917684;29;20051;-86
2020/12/08 11:29:52;;;;;;;21.05;14.93;;;;;;;6.95;74.97;98672.34;4916330;29;20056;-86
2020/12/08 11:32:19;;;;;;;25.58;14.73;;;;;;;6.95;75.23;98677.59;4917093;29;20052;-88
2020/12/08 11:34:48;;;;;;;24.08;15.65;;;;;;;6.95;74.72;98683.63;4919277;29;20056;-85
2020/12/08 11:37:15;;;;;;;24.85;15.35;;;;;;;6.96;75.42;98676.66;4917981;29;20130;-87
2020/12/08 11:39:41;;;;;;;24.45;15.48;;;;;;;6.97;75.44;98679.19;4915993;29;20060;-87
2020/12/08 11:42:08;;;;;;;23.33;14.75;;;;;;;7.00;75.20;98683.38;4917326;29;20060;-86
2020/12/08 11:44:35;;;;;;;20.83;14.73;;;;;;;7.00;75.32;98672.91;4916424;29;20087;-88
2020/12/08 11:47:01;;;;;;;23.15;14.60;;;;;;;7.01;74.91;98670.22;4916137;29;20052;-85
2020/12/08 11:49:28;;;;;;;23.67;15.55;;;;;;;7.02;75.24;98668.41;4916836;29;20052;-87
2020/12/08 11:51:58;;;;;;;26.38;15.65;;;;;;;7.00;74.69;98675.53;4919059;29;20091;-86
2020/12/08 11:54:24;;;;;;;23.92;15.00;;;;;;;7.03;75.02;98670.94;4916369;29;20566;-87
2020/12/08 11:56:50;;;;;;;25.17;15.93;;;;;;;7.03;75.12;98668.34;4917697;29;20095;-86
2020/12/08 11:59:18;;;;;;;25.52;16.73;;;;;;;7.04;75.05;98674.41;4918767;29;20044;-87
2020/12/08 12:01:44;;;;;;;27.17;16.73;;;;;;;7.06;75.06;98658.63;4917525;29;20415;-87
2020/12/08 12:04:11;;;;;;;23.73;17.30;;;;;;;7.08;75.40;98665.44;4917340;29;20083;-87
2020/12/08 12:06:37;;;;;;;27.13;17.00;;;;;;;7.09;75.95;98669.75;4917032;29;20052;-87
2020/12/08 12:09:04;;;;;;;24.20;16.45;;;;;;;7.13;75.74;98663.38;4918278;29;20498;-87
2020/12/08 12:11:30;;;;;;;26.80;17.27;;;;;;;7.17;76.08;98664.88;4920307;29;20047;-87
2020/12/08 12:13:56;;;;;;;27.10;17.55;;;;;;;7.25;76.06;98660.97;4921124;29;20064;-87
2020/12/08 12:16:23;;;;;;;27.50;17.00;;;;;;;7.28;76.15;98666.00;4919174;29;20055;-86
2020/12/08 12:18:49;;;;;;;27.05;18.00;;;;;;;7.33;76.09;98658.69;4920912;29;20385;-88
2020/12/08 12:21:15;;;;;;;28.00;18.15;;;;;;;7.37;75.92;98660.19;4918977;29;20426;-86
2020/12/08 12:23:42;;;;;;;27.00;17.70;;;;;;;7.43;76.20;98666.84;4920249;29;20067;-87
2020/12/08 12:26:08;;;;;;;28.10;18.17;;;;;;;7.48;76.01;98662.16;4918762;29;20415;-86
2020/12/08 12:28:34;;;;;;;26.15;17.15;;;;;;;7.54;76.12;98660.94;4921073;29;20132;-86
2020/12/08 12:31:02;;;;;;;27.17;17.73;;;;;;;7.59;75.77;98656.25;4919981;29;20525;-87
2020/12/08 12:33:28;;;;;;;24.92;16.55;;;;;;;7.64;75.72;98663.84;4918911;29;20063;-87
2020/12/08 12:35:54;;;;;;;22.52;15.98;;;;;;;7.68;75.41;98660.09;4919794;29;20067;-87
2020/12/08 12:38:20;;;;;;;26.00;17.20;;;;;;;7.71;75.15;98649.41;4920435;29;20403;-88
2020/12/08 12:40:52;;;;;;;25.85;16.52;;;;;;;7.73;74.97;98657.19;4920892;29;20418;-88
2020/12/08 12:43:19;;;;;;;23.42;16.05;;;;;;;7.73;74.73;98652.78;4918339;29;20479;-89
2020/12/08 12:45:45;;;;;;;22.48;15.77;;;;;;;7.74;74.59;98654.44;4918800;29;20056;-87
2020/12/08 12:48:11;;;;;;;23.15;15.77;;;;;;;7.75;74.79;98657.91;4920035;29;20417;-87
2020/12/08 12:50:37;;;;;;;23.80;15.80;;;;;;;7.75;75.03;98655.28;4919705;29;20060;-86
2020/12/08 12:53:04;;;;;;;21.85;15.48;;;;;;;7.76;75.03;98652.59;4919562;29;20056;-86
2020/12/08 12:55:30;;;;;;;22.50;16.08;;;;;;;7.80;75.07;98650.59;4920478;29;20115;-86
2020/12/08 12:57:56;;;;;;;24.00;16.50;;;;;;;7.82;75.11;98646.13;4920331;29;20059;-87
2020/12/08 13:00:23;;;;;;;23.75;16.60;;;;;;;7.85;75.60;98640.66;4920611;29;20408;-88
2020/12/08 13:02:49;;;;;;;25.23;16.42;;;;;;;7.90;75.16;98653.47;4918047;29;20052;-87
2020/12/08 13:05:15;;;;;;;22.92;15.70;;;;;;;7.94;75.15;98654.97;4919338;29;20056;-87
2020/12/08 13:07:42;;;;;;;24.27;16.95;;;;;;;7.98;75.03;98648.59;4918021;29;20055;-86
2020/12/08 13:10:08;;;;;;;25.80;16.73;;;;;;;8.00;74.62;98644.09;4919972;29;20060;-87
2020/12/08 13:12:34;;;;;;;25.02;15.93;;;;;;;8.03;74.63;98648.28;4918795;29;20052;-87
2020/12/08 13:15:00;;;;;;;24.98;16.75;;;;;;;8.05;74.59;98646.41;4920500;29;20091;-88
2020/12/08 13:17:26;;;;;;;25.58;17.45;;;;;;;8.05;74.42;98649.91;4921148;29;20052;-87
2020/12/08 13:19:52;;;;;;;21.40;14.98;;;;;;;8.08;74.57;98656.72;4918002;29;20048;-86
2020/12/08 13:22:19;;;;;;;23.02;15.95;;;;;;;8.06;74.25;98651.56;4917297;29;20091;-88
2020/12/08 13:24:45;;;;;;;21.83;15.27;;;;;;;8.06;73.90;98655.97;4920232;29;20048;-88
2020/12/08 13:27:13;;;;;;;24.20;15.43;;;;;;;8.04;73.86;98656.06;4920012;29;20052;-86
2020/12/08 13:29:39;;;;;;;23.95;15.90;;;;;;;8.05;73.88;98660.38;4918679;29;20499;-86
2020/12/08 13:32:05;;;;;;;27.02;15.77;;;;;;;8.03;73.81;98664.84;4920349;29;20137;-87
2020/12/08 13:34:32;;;;;;;24.23;15.15;;;;;;;8.02;73.88;98655.31;4919205;29;20094;-88
2020/12/08 13:36:58;;;;;;;21.98;15.57;;;;;;;8.03;73.56;98664.00;4920168;29;20131;-86
2020/12/08 13:39:25;;;;;;;24.40;16.67;;;;;;;8.00;73.87;98667.66;4917579;29;20419;-87
2020/12/08 13:41:51;;;;;;;22.40;15.57;;;;;;;7.99;73.66;98670.41;4918316;29;20056;-88
2020/12/08 13:44:19;;;;;;;24.63;16.73;;;;;;;7.96;73.52;98666.19;4918023;29;20052;-88
2020/12/08 13:46:48;;;;;;;23.55;15.23;;;;;;;7.93;73.77;98672.47;4918248;29;20503;-88
2020/12/08 13:49:14;;;;;;;21.73;15.02;;;;;;;7.92;73.38;98675.19;4918605;29;20052;-87
2020/12/08 13:51:47;;;;;;;20.85;14.52;;;;;;;7.88;73.15;98676.31;4917663;29;20056;-88
2020/12/08 13:54:14;;;;;;;21.63;15.27;;;;;;;7.87;73.78;98678.09;4917949;29;20088;-87
2020/12/08 13:56:40;;;;;;;25.15;16.23;;;;;;;7.83;73.34;98671.38;4920240;29;20052;-86
2020/12/08 13:59:06;;;;;;;22.17;15.57;;;;;;;7.80;73.79;98688.13;4918871;29;20060;-88
2020/12/08 14:01:32;;;;;;;27.33;16.38;;;;;;;7.78;73.85;98683.94;4919062;29;20058;-86
2020/12/08 14:03:58;;;;;;;21.00;15.02;;;;;;;7.76;73.68;98677.94;4918934;29;20139;-86
2020/12/08 14:06:25;;;;;;;21.88;14.63;;;;;;;7.74;73.78;98687.69;4918769;29;20062;-86
2020/12/08 14:08:54;;;;;;;22.88;15.52;;;;;;;7.72;73.78;98686.91;4917899;29;20048;-90
2020/12/08 14:11:28;;;;;;;23.77;16.48;;;;;;;7.69;73.79;98682.72;4918116;29;20590;-90
2020/12/08 14:13:54;;;;;;;22.95;15.57;;;;;;;7.67;73.73;98677.56;4918120;29;20062;-87
2020/12/08 14:16:21;;;;;;;20.30;15.00;;;;;;;7.64;73.58;98672.53;4917798;29;20045;-87
2020/12/08 14:18:47;;;;;;;22.92;15.00;;;;;;;7.62;73.67;98682.25;4917864;29;20054;-86
2020/12/08 14:21:18;;;;;;;21.95;15.82;;;;;;;7.60;73.58;98684.13;4919556;29;20503;-86
2020/12/08 14:23:44;;;;;;;23.45;16.65;;;;;;;7.60;73.69;98684.13;4918159;29;20052;-85
2020/12/08 14:26:10;;;;;;;24.63;16.13;;;;;;;7.58;73.66;98688.63;4917421;29;20500;-87
2020/12/08 14:28:36;;;;;;;23.88;16.05;;;;;;;7.57;73.75;98689.56;4917846;29;20063;-87